PWSweather.com
Personal Weather Stations
Station Observations
KAZTUCSO57
Countryside Manor, Tucson, AZ 85742

Countryside ManorTucson, AZ 85742

Lat: 32.3692, Lon: -111.066

Elevation: 2307

Station Type: Davis VP Pro+ 6163

http://frogville.us

Latest ConditionsUpdated 4:50:00 PM MST Monday, Oct 21, 2019
Currently Today's Max Today's Min Today's Average
Temperature 82.3°F27.9°C 87.0°F30.6°C 49.8°F9.9°C 67.0°F19.4°C
Dew Point 20.3°F-6.5°C 29.2°F-1.6°C 19.3°F-7.1°C 25.1°F-3.8°C
Winds 4.6 mph W7.4 kmh W 4.6 mph -7.4 kmh - - 1.1 mph 1.8 kmh
Wind Gusts 6.9 mph11.1 kmh 9.2 mph14.8 kmh - -
Humidity 10% 41% 9% 23%
Pressure 29.92 in1013.2 mb 29.98 in1015.2 mb 29.87 in1011.5 mb -
Hour Temp Dew Point Humidity Winds Wind Gusts Pressure Precip Precip Rate Daily Precip Total
04:50 PM 82.3°F27.9°C 20.3°F-6.5°C 10% 4.6 mph W7.4 kmh W 6.9 mph11.1 kmh 29.92 in1013.2 mb - 0.00 in0.0 mm 0.00 in0.0 mm
04:40 PM 83.2°F28.4°C 20.9°F-6.2°C 10% 3.5 mph WSW5.6 kmh WSW 3.5 mph5.6 kmh 29.91 in1012.9 mb - 0.00 in0.0 mm 0.00 in0.0 mm
04:30 PM 83.8°F28.8°C 21.4°F-5.9°C 10% 2.3 mph W3.7 kmh W 3.5 mph5.6 kmh 29.91 in1012.9 mb - 0.00 in0.0 mm 0.00 in0.0 mm
04:20 PM 84.3°F29.1°C 19.3°F-7.1°C 9% 2.3 mph WSW3.7 kmh WSW 3.5 mph5.6 kmh 29.91 in1012.9 mb - 0.00 in0.0 mm 0.00 in0.0 mm
04:10 PM 84.7°F29.3°C 22.1°F-5.5°C 10% 3.5 mph W5.6 kmh W 5.8 mph9.3 kmh 29.91 in1012.9 mb - 0.00 in0.0 mm 0.00 in0.0 mm
04:00 PM 84.9°F29.4°C 19.7°F-6.8°C 9% 2.3 mph WSW3.7 kmh WSW 3.5 mph5.6 kmh 29.91 in1012.9 mb - 0.00 in0.0 mm 0.00 in0.0 mm
03:50 PM 85.4°F29.7°C 20.1°F-6.6°C 9% 3.5 mph W5.6 kmh W 4.6 mph7.4 kmh 29.91 in1012.9 mb - 0.00 in0.0 mm 0.00 in0.0 mm
03:40 PM 85.8°F29.9°C 22.9°F-5.1°C 10% 3.5 mph WSW5.6 kmh WSW 9.2 mph14.8 kmh 29.91 in1012.9 mb - 0.00 in0.0 mm 0.00 in0.0 mm
03:30 PM 86.1°F30.1°C 23.1°F-4.9°C 10% 3.5 mph WSW5.6 kmh WSW 3.5 mph5.6 kmh 29.91 in1012.9 mb - 0.00 in0.0 mm 0.00 in0.0 mm
03:20 PM 86.2°F30.1°C 20.7°F-6.3°C 9% 3.5 mph WSW5.6 kmh WSW 3.5 mph5.6 kmh 29.91 in1012.9 mb - 0.00 in0.0 mm 0.00 in0.0 mm
03:10 PM 86.5°F30.3°C 23.4°F-4.8°C 10% 3.5 mph W5.6 kmh W 4.6 mph7.4 kmh 29.91 in1012.9 mb - 0.00 in0.0 mm 0.00 in0.0 mm
03:00 PM 86.3°F30.2°C 23.3°F-4.8°C 10% 4.6 mph WSW7.4 kmh WSW 6.9 mph11.1 kmh 29.91 in1012.9 mb - 0.00 in0.0 mm 0.00 in0.0 mm
02:50 PM 86.1°F30.1°C 25.4°F-3.7°C 11% 4.6 mph WSW7.4 kmh WSW 8.1 mph13.0 kmh 29.91 in1012.9 mb - 0.00 in0.0 mm 0.00 in0.0 mm
02:40 PM 86.7°F30.4°C 23.6°F-4.7°C 10% 3.5 mph SW5.6 kmh SW 4.6 mph7.4 kmh 29.91 in1012.9 mb - 0.00 in0.0 mm 0.00 in0.0 mm
02:30 PM 86.9°F30.5°C 26.0°F-3.3°C 11% 2.3 mph WNW3.7 kmh WNW 4.6 mph7.4 kmh 29.91 in1012.9 mb - 0.00 in0.0 mm 0.00 in0.0 mm
02:20 PM 86.7°F30.4°C 25.9°F-3.4°C 11% 2.3 mph NW3.7 kmh NW 3.5 mph5.6 kmh 29.91 in1012.9 mb - 0.00 in0.0 mm 0.00 in0.0 mm
02:10 PM 87.0°F30.6°C 23.8°F-4.6°C 10% 3.5 mph SW5.6 kmh SW 8.1 mph13.0 kmh 29.91 in1012.9 mb - 0.00 in0.0 mm 0.00 in0.0 mm
02:00 PM 87.0°F30.6°C 23.8°F-4.6°C 10% 3.5 mph WSW5.6 kmh WSW 6.9 mph11.1 kmh 29.91 in1012.9 mb - 0.00 in0.0 mm 0.00 in0.0 mm
01:50 PM 86.5°F30.3°C 25.7°F-3.5°C 11% 2.3 mph NW3.7 kmh NW 3.5 mph5.6 kmh 29.91 in1012.9 mb - 0.00 in0.0 mm 0.00 in0.0 mm
01:40 PM 86.3°F30.2°C 25.6°F-3.6°C 11% 1.2 mph W1.9 kmh W 2.3 mph3.7 kmh 29.92 in1013.2 mb - 0.00 in0.0 mm 0.00 in0.0 mm
01:30 PM 86.4°F30.2°C 23.4°F-4.8°C 10% 3.5 mph W5.6 kmh W 5.8 mph9.3 kmh 29.92 in1013.2 mb - 0.00 in0.0 mm 0.00 in0.0 mm
01:20 PM 86.5°F30.3°C 25.7°F-3.5°C 11% 1.2 mph W1.9 kmh W 3.5 mph5.6 kmh 29.93 in1013.5 mb - 0.00 in0.0 mm 0.00 in0.0 mm
01:10 PM 86.1°F30.1°C 23.1°F-4.9°C 10% 2.3 mph WSW3.7 kmh WSW 3.5 mph5.6 kmh 29.93 in1013.5 mb - 0.00 in0.0 mm 0.00 in0.0 mm
01:00 PM 85.9°F29.9°C 23.0°F-5.0°C 10% 2.3 mph WSW3.7 kmh WSW 5.8 mph9.3 kmh 29.94 in1013.9 mb - 0.00 in0.0 mm 0.00 in0.0 mm
12:50 PM 86.2°F30.1°C 23.2°F-4.9°C 10% 2.3 mph NW3.7 kmh NW 3.5 mph5.6 kmh 29.94 in1013.9 mb - 0.00 in0.0 mm 0.00 in0.0 mm
12:40 PM 86.3°F30.2°C 25.5°F-3.6°C 11% 1.2 mph WSW1.9 kmh WSW 3.5 mph5.6 kmh 29.95 in1014.2 mb - 0.00 in0.0 mm 0.00 in0.0 mm
12:30 PM 85.0°F29.4°C 22.3°F-5.4°C 10% 1.2 mph WSW1.9 kmh WSW 3.5 mph5.6 kmh 29.95 in1014.2 mb - 0.00 in0.0 mm 0.00 in0.0 mm
12:20 PM 84.0°F28.9°C 23.8°F-4.6°C 11% 2.3 mph NW3.7 kmh NW 3.5 mph5.6 kmh 29.95 in1014.2 mb - 0.00 in0.0 mm 0.00 in0.0 mm
12:10 PM 83.0°F28.3°C 23.0°F-5.0°C 11% 1.2 mph SSW1.9 kmh SSW 3.5 mph5.6 kmh 29.96 in1014.6 mb - 0.00 in0.0 mm 0.00 in0.0 mm
12:00 PM 81.6°F27.6°C 24.0°F-4.4°C 12% Calm Calm 1.2 mph1.9 kmh 29.96 in1014.6 mb - 0.00 in0.0 mm 0.00 in0.0 mm
11:50 AM 80.6°F27.0°C 23.3°F-4.8°C 12% Calm Calm -- 29.96 in1014.6 mb - 0.00 in0.0 mm 0.00 in0.0 mm
11:40 AM 79.7°F26.5°C 24.5°F-4.2°C 13% 1.2 mph SSW1.9 kmh SSW 3.5 mph5.6 kmh 29.96 in1014.6 mb - 0.00 in0.0 mm 0.00 in0.0 mm
11:30 AM 78.9°F26.1°C 25.6°F-3.6°C 14% 1.2 mph SW1.9 kmh SW 3.5 mph5.6 kmh 29.96 in1014.6 mb - 0.00 in0.0 mm 0.00 in0.0 mm
11:20 AM 77.8°F25.4°C 26.4°F-3.1°C 15% 1.2 mph ENE1.9 kmh ENE 2.3 mph3.7 kmh 29.97 in1014.9 mb - 0.00 in0.0 mm 0.00 in0.0 mm
11:10 AM 76.9°F24.9°C 25.7°F-3.5°C 15% 2.3 mph SE3.7 kmh SE 3.5 mph5.6 kmh 29.97 in1014.9 mb - 0.00 in0.0 mm 0.00 in0.0 mm
11:00 AM 76.3°F24.6°C 26.8°F-2.9°C 16% 1.2 mph SE1.9 kmh SE 3.5 mph5.6 kmh 29.97 in1014.9 mb - 0.00 in0.0 mm 0.00 in0.0 mm
10:50 AM 75.3°F24.1°C 27.4°F-2.6°C 17% Calm Calm 1.2 mph1.9 kmh 29.97 in1014.9 mb - 0.00 in0.0 mm 0.00 in0.0 mm
10:40 AM 74.1°F23.4°C 27.8°F-2.3°C 18% 1.2 mph ENE1.9 kmh ENE 3.5 mph5.6 kmh 29.97 in1014.9 mb - 0.00 in0.0 mm 0.00 in0.0 mm
10:30 AM 73.0°F22.8°C 27.0°F-2.8°C 18% 1.2 mph ENE1.9 kmh ENE 2.3 mph3.7 kmh 29.97 in1014.9 mb - 0.00 in0.0 mm 0.00 in0.0 mm
10:20 AM 72.2°F22.3°C 27.6°F-2.4°C 19% 1.2 mph SE1.9 kmh SE 3.5 mph5.6 kmh 29.98 in1015.2 mb - 0.00 in0.0 mm 0.00 in0.0 mm
10:10 AM 71.1°F21.7°C 29.1°F-1.6°C 21% Calm Calm 3.5 mph5.6 kmh 29.98 in1015.2 mb - 0.00 in0.0 mm 0.00 in0.0 mm
10:00 AM 70.2°F21.2°C 28.4°F-2.0°C 21% Calm Calm 1.2 mph1.9 kmh 29.98 in1015.2 mb - 0.00 in0.0 mm 0.00 in0.0 mm
09:50 AM 69.6°F20.9°C 29.0°F-1.7°C 22% Calm Calm 3.5 mph5.6 kmh 29.98 in1015.2 mb - 0.00 in0.0 mm 0.00 in0.0 mm
09:40 AM 68.4°F20.2°C 29.2°F-1.6°C 23% 1.2 mph SE1.9 kmh SE 2.3 mph3.7 kmh 29.98 in1015.2 mb - 0.00 in0.0 mm 0.00 in0.0 mm
09:30 AM 67.7°F19.8°C 28.6°F-1.9°C 23% 1.2 mph ENE1.9 kmh ENE 2.3 mph3.7 kmh 29.98 in1015.2 mb - 0.00 in0.0 mm 0.00 in0.0 mm
09:20 AM 67.0°F19.4°C 29.0°F-1.7°C 24% 2.3 mph SE3.7 kmh SE 2.3 mph3.7 kmh 29.98 in1015.2 mb - 0.00 in0.0 mm 0.00 in0.0 mm
09:10 AM 66.2°F19.0°C 28.3°F-2.1°C 24% 2.3 mph ENE3.7 kmh ENE 2.3 mph3.7 kmh 29.98 in1015.2 mb - 0.00 in0.0 mm 0.00 in0.0 mm
09:00 AM 65.5°F18.6°C 28.7°F-1.8°C 25% 2.3 mph SSE3.7 kmh SSE 3.5 mph5.6 kmh 29.98 in1015.2 mb - 0.00 in0.0 mm 0.00 in0.0 mm
08:50 AM 64.8°F18.2°C 29.1°F-1.6°C 26% 1.2 mph SE1.9 kmh SE 4.6 mph7.4 kmh 29.98 in1015.2 mb - 0.00 in0.0 mm 0.00 in0.0 mm
08:40 AM 64.4°F18.0°C 28.7°F-1.8°C 26% 1.2 mph SE1.9 kmh SE 3.5 mph5.6 kmh 29.98 in1015.2 mb - 0.00 in0.0 mm 0.00 in0.0 mm
08:30 AM 63.7°F17.6°C 28.1°F-2.2°C 26% 1.2 mph E1.9 kmh E 3.5 mph5.6 kmh 29.98 in1015.2 mb - 0.00 in0.0 mm 0.00 in0.0 mm
08:20 AM 62.6°F17.0°C 28.1°F-2.2°C 27% Calm Calm 2.3 mph3.7 kmh 29.98 in1015.2 mb - 0.00 in0.0 mm 0.00 in0.0 mm
08:10 AM 61.1°F16.2°C 27.7°F-2.4°C 28% Calm Calm 1.2 mph1.9 kmh 29.98 in1015.2 mb - 0.00 in0.0 mm 0.00 in0.0 mm
08:00 AM 59.1°F15.1°C 26.0°F-3.3°C 28% 1.2 mph ENE1.9 kmh ENE 2.3 mph3.7 kmh 29.97 in1014.9 mb - 0.00 in0.0 mm 0.00 in0.0 mm
07:50 AM 56.3°F13.5°C 26.0°F-3.3°C 31% Calm Calm 2.3 mph3.7 kmh 29.97 in1014.9 mb - 0.00 in0.0 mm 0.00 in0.0 mm
07:40 AM 54.1°F12.3°C 28.3°F-2.1°C 37% Calm Calm 1.2 mph1.9 kmh 29.96 in1014.6 mb - 0.00 in0.0 mm 0.00 in0.0 mm
07:30 AM 52.9°F11.6°C 26.0°F-3.3°C 35% Calm Calm 1.2 mph1.9 kmh 29.95 in1014.2 mb - 0.00 in0.0 mm 0.00 in0.0 mm
07:20 AM 51.6°F10.9°C 26.2°F-3.2°C 37% Calm Calm -- 29.95 in1014.2 mb - 0.00 in0.0 mm 0.00 in0.0 mm
07:10 AM 50.5°F10.3°C 25.8°F-3.4°C 38% Calm Calm 1.2 mph1.9 kmh 29.94 in1013.9 mb - 0.00 in0.0 mm 0.00 in0.0 mm
07:00 AM 50.1°F10.1°C 24.8°F-4.0°C 37% Calm Calm -- 29.94 in1013.9 mb - 0.00 in0.0 mm 0.00 in0.0 mm
06:50 AM 50.1°F10.1°C 24.8°F-4.0°C 37% Calm Calm -- 29.93 in1013.5 mb - 0.00 in0.0 mm 0.00 in0.0 mm
06:40 AM 50.0°F10.0°C 24.1°F-4.4°C 36% Calm Calm 1.2 mph1.9 kmh 29.93 in1013.5 mb - 0.00 in0.0 mm 0.00 in0.0 mm
06:30 AM 50.0°F10.0°C 23.4°F-4.8°C 35% Calm Calm 1.2 mph1.9 kmh 29.93 in1013.5 mb - 0.00 in0.0 mm 0.00 in0.0 mm
06:20 AM 49.9°F9.9°C 24.0°F-4.4°C 36% Calm Calm -- 29.93 in1013.5 mb - 0.00 in0.0 mm 0.00 in0.0 mm
06:10 AM 49.8°F9.9°C 23.9°F-4.5°C 36% Calm Calm -- 29.93 in1013.5 mb - 0.00 in0.0 mm 0.00 in0.0 mm
06:00 AM 49.8°F9.9°C 25.8°F-3.4°C 39% 1.2 mph ENE1.9 kmh ENE 2.3 mph3.7 kmh 29.92 in1013.2 mb - 0.00 in0.0 mm 0.00 in0.0 mm
05:50 AM 50.0°F10.0°C 27.2°F-2.7°C 41% Calm Calm -- 29.91 in1012.9 mb - 0.00 in0.0 mm 0.00 in0.0 mm
05:40 AM 50.3°F10.2°C 27.5°F-2.5°C 41% Calm Calm -- 29.92 in1013.2 mb - 0.00 in0.0 mm 0.00 in0.0 mm
05:30 AM 50.6°F10.3°C 26.6°F-3.0°C 39% Calm Calm -- 29.91 in1012.9 mb - 0.00 in0.0 mm 0.00 in0.0 mm
05:20 AM 50.7°F10.4°C 26.0°F-3.3°C 38% Calm Calm -- 29.91 in1012.9 mb - 0.00 in0.0 mm 0.00 in0.0 mm
05:10 AM 50.9°F10.5°C 25.5°F-3.6°C 37% Calm Calm -- 29.90 in1012.5 mb - 0.00 in0.0 mm 0.00 in0.0 mm
05:00 AM 51.1°F10.6°C 24.4°F-4.2°C 35% Calm Calm -- 29.90 in1012.5 mb - 0.00 in0.0 mm 0.00 in0.0 mm
04:50 AM 51.3°F10.7°C 23.9°F-4.5°C 34% Calm Calm -- 29.90 in1012.5 mb - 0.00 in0.0 mm 0.00 in0.0 mm
04:40 AM 51.5°F10.8°C 23.3°F-4.8°C 33% Calm Calm -- 29.90 in1012.5 mb - 0.00 in0.0 mm 0.00 in0.0 mm
04:30 AM 51.8°F11.0°C 24.3°F-4.3°C 34% Calm Calm -- 29.89 in1012.2 mb - 0.00 in0.0 mm 0.00 in0.0 mm
04:20 AM 52.1°F11.2°C 25.2°F-3.8°C 35% Calm Calm -- 29.89 in1012.2 mb - 0.00 in0.0 mm 0.00 in0.0 mm
04:10 AM 52.3°F11.3°C 24.7°F-4.1°C 34% Calm Calm 1.2 mph1.9 kmh 29.90 in1012.5 mb - 0.00 in0.0 mm 0.00 in0.0 mm
04:00 AM 52.5°F11.4°C 24.2°F-4.3°C 33% Calm Calm -- 29.89 in1012.2 mb - 0.00 in0.0 mm 0.00 in0.0 mm
03:50 AM 52.6°F11.4°C 25.0°F-3.9°C 34% 1.2 mph ENE1.9 kmh ENE 2.3 mph3.7 kmh 29.88 in1011.9 mb - 0.00 in0.0 mm 0.00 in0.0 mm
03:40 AM 52.9°F11.6°C 26.0°F-3.3°C 35% Calm Calm -- 29.88 in1011.9 mb - 0.00 in0.0 mm 0.00 in0.0 mm
03:30 AM 53.2°F11.8°C 26.2°F-3.2°C 35% Calm Calm -- 29.88 in1011.9 mb - 0.00 in0.0 mm 0.00 in0.0 mm
03:20 AM 53.4°F11.9°C 26.4°F-3.1°C 35% Calm Calm 1.2 mph1.9 kmh 29.88 in1011.9 mb - 0.00 in0.0 mm 0.00 in0.0 mm
03:10 AM 53.6°F12.0°C 26.6°F-3.0°C 35% Calm Calm -- 29.88 in1011.9 mb - 0.00 in0.0 mm 0.00 in0.0 mm
03:00 AM 54.0°F12.2°C 26.2°F-3.2°C 34% Calm Calm -- 29.88 in1011.9 mb - 0.00 in0.0 mm 0.00 in0.0 mm
02:50 AM 54.3°F12.4°C 25.8°F-3.4°C 33% Calm Calm -- 29.88 in1011.9 mb - 0.00 in0.0 mm 0.00 in0.0 mm
02:40 AM 54.5°F12.5°C 25.2°F-3.8°C 32% Calm Calm -- 29.88 in1011.9 mb - 0.00 in0.0 mm 0.00 in0.0 mm
02:30 AM 55.0°F12.8°C 24.9°F-3.9°C 31% Calm Calm -- 29.88 in1011.9 mb - 0.00 in0.0 mm 0.00 in0.0 mm
02:20 AM 55.7°F13.2°C 24.7°F-4.1°C 30% Calm Calm 1.2 mph1.9 kmh 29.88 in1011.9 mb - 0.00 in0.0 mm 0.00 in0.0 mm
02:10 AM 56.3°F13.5°C 24.4°F-4.2°C 29% Calm Calm 1.2 mph1.9 kmh 29.88 in1011.9 mb - 0.00 in0.0 mm 0.00 in0.0 mm
02:00 AM 57.0°F13.9°C 24.2°F-4.3°C 28% Calm Calm -- 29.88 in1011.9 mb - 0.00 in0.0 mm 0.00 in0.0 mm
01:50 AM 57.6°F14.2°C 24.7°F-4.1°C 28% Calm Calm -- 29.88 in1011.9 mb - 0.00 in0.0 mm 0.00 in0.0 mm
01:40 AM 58.0°F14.4°C 24.2°F-4.3°C 27% Calm Calm -- 29.89 in1012.2 mb - 0.00 in0.0 mm 0.00 in0.0 mm
01:30 AM 58.3°F14.6°C 25.3°F-3.7°C 28% Calm Calm -- 29.89 in1012.2 mb - 0.00 in0.0 mm 0.00 in0.0 mm
01:20 AM 58.3°F14.6°C 26.1°F-3.3°C 29% Calm Calm -- 29.90 in1012.5 mb - 0.00 in0.0 mm 0.00 in0.0 mm
01:10 AM 57.7°F14.3°C 25.6°F-3.6°C 29% Calm Calm 1.2 mph1.9 kmh 29.89 in1012.2 mb - 0.00 in0.0 mm 0.00 in0.0 mm
01:00 AM 57.8°F14.3°C 25.7°F-3.5°C 29% Calm Calm -- 29.88 in1011.9 mb - 0.00 in0.0 mm 0.00 in0.0 mm
12:50 AM 58.0°F14.4°C 25.0°F-3.9°C 28% Calm Calm -- 29.87 in1011.5 mb - 0.00 in0.0 mm 0.00 in0.0 mm
12:40 AM 58.3°F14.6°C 24.4°F-4.2°C 27% Calm Calm 1.2 mph1.9 kmh 29.87 in1011.5 mb - 0.00 in0.0 mm 0.00 in0.0 mm
12:30 AM 58.6°F14.8°C 23.8°F-4.6°C 26% Calm Calm -- 29.87 in1011.5 mb - 0.00 in0.0 mm 0.00 in0.0 mm
12:20 AM 58.9°F14.9°C 24.0°F-4.4°C 26% Calm Calm 1.2 mph1.9 kmh 29.88 in1011.9 mb - 0.00 in0.0 mm 0.00 in0.0 mm
12:10 AM 59.1°F15.1°C 24.2°F-4.3°C 26% Calm Calm -- 29.87 in1011.5 mb - 0.00 in0.0 mm 0.00 in0.0 mm
12:00 AM 59.5°F15.3°C 23.6°F-4.7°C 25% Calm Calm 1.2 mph1.9 kmh 29.87 in1011.5 mb - 0.00 in0.0 mm 0.00 in0.0 mm